Time;durP1;ratioP1;P1;durP2;ratioP2;P2;SDS_P1;SDS_P2;PMS_P1;PMS_P2;Temp;Humidity;BMP_temperature;BMP_pressure;BME280_temperature;BME280_humidity;BME280_pressure;Samples;Min_cycle;Max_cycle;Signal;HPM_P1;HPM_P2
2022/11/12 00:00:30;;;;;;;341.63;319.40;;;4.40;46.50;;;;;;5054574;28;20541;-72
2022/11/12 00:02:56;;;;;;;694.03;648.70;;;4.40;46.20;;;;;;5051404;28;20181;-72
2022/11/12 00:05:22;;;;;;;694.53;647.20;;;4.40;46.00;;;;;;5051648;28;20493;-72
2022/11/12 00:07:48;;;;;;;567.47;528.17;;;4.40;45.40;;;;;;5052149;28;21099;-72
2022/11/12 00:10:14;;;;;;;287.50;266.53;;;4.40;46.10;;;;;;5053104;28;20180;-72
2022/11/12 00:12:39;;;;;;;388.90;362.53;;;4.40;45.70;;;;;;5051314;28;20190;-72
2022/11/12 00:15:05;;;;;;;416.17;388.13;;;4.40;46.40;;;;;;5051663;28;20431;-72
2022/11/12 00:17:31;;;;;;;647.28;605.40;;;4.30;46.20;;;;;;5053106;28;20212;-72
2022/11/12 00:19:56;;;;;;;448.13;418.27;;;4.30;45.50;;;;;;5051462;28;20662;-72
2022/11/12 00:22:22;;;;;;;641.90;599.97;;;4.30;46.10;;;;;;5051269;28;20540;-72
2022/11/12 00:24:47;;;;;;;655.83;612.17;;;4.20;44.80;;;;;;5051210;28;20721;-72
2022/11/12 00:27:13;;;;;;;685.23;641.17;;;4.20;44.60;;;;;;5051807;28;20280;-72
2022/11/12 00:29:38;;;;;;;728.47;678.63;;;4.10;43.50;;;;;;5053502;28;20268;-72
2022/11/12 00:32:05;;;;;;;334.53;311.13;;;4.10;44.10;;;;;;5055556;28;20172;-72
2022/11/12 00:34:31;;;;;;;729.33;683.43;;;4.00;43.60;;;;;;5055984;28;20200;-72
2022/11/12 00:36:57;;;;;;;653.95;608.83;;;4.00;43.40;;;;;;5057289;28;20466;-72
2022/11/12 00:39:23;;;;;;;593.60;553.07;;;4.00;43.20;;;;;;5055827;28;20260;-72
2022/11/12 00:41:48;;;;;;;409.53;381.30;;;4.00;43.20;;;;;;5055586;28;20415;-72
2022/11/12 00:44:14;;;;;;;460.17;429.20;;;3.90;43.00;;;;;;5055498;28;20196;-72
2022/11/12 00:46:39;;;;;;;345.27;319.17;;;3.90;43.80;;;;;;5056463;28;20649;-71
2022/11/12 00:49:05;;;;;;;444.50;414.63;;;3.90;43.60;;;;;;5055483;28;20212;-73
2022/11/12 00:51:30;;;;;;;334.50;309.20;;;3.90;43.30;;;;;;5054991;28;20177;-73
2022/11/12 00:53:56;;;;;;;294.63;272.23;;;3.80;43.70;;;;;;5055263;28;20322;-73
2022/11/12 00:56:21;;;;;;;784.17;729.77;;;3.80;42.90;;;;;;5055425;28;20211;-73
2022/11/12 00:58:47;;;;;;;761.97;709.07;;;3.70;41.80;;;;;;5057688;28;20176;-73
2022/11/12 01:01:14;;;;;;;445.00;413.93;;;3.60;42.50;;;;;;5055047;28;20724;-73
2022/11/12 01:03:41;;;;;;;849.22;790.50;;;3.60;42.50;;;;;;5054764;28;20207;-73
2022/11/12 01:06:15;;;;;;;702.47;654.15;;;3.60;42.00;;;;;;5055596;28;20206;-73
2022/11/12 01:08:41;;;;;;;702.47;656.85;;;3.50;42.60;;;;;;5055204;28;20173;-73
2022/11/12 01:11:13;;;;;;;736.65;686.17;;;3.50;42.40;;;;;;5057025;28;20171;-73
2022/11/12 01:13:41;;;;;;;833.08;778.72;;;3.40;41.80;;;;;;5053010;28;20201;-73
2022/11/12 01:16:13;;;;;;;393.05;367.20;;;3.40;42.50;;;;;;5054600;28;20197;-73
2022/11/12 01:18:39;;;;;;;591.10;552.00;;;3.40;41.90;;;;;;5054727;28;20235;-73
2022/11/12 01:21:06;;;;;;;628.80;583.43;;;3.40;41.80;;;;;;5055245;28;20585;-72
2022/11/12 01:23:34;;;;;;;677.20;631.20;;;3.30;42.00;;;;;;5056377;28;20270;-71
2022/11/12 01:26:07;;;;;;;704.45;655.42;;;3.30;42.20;;;;;;5055153;28;20222;-71
2022/11/12 01:28:33;;;;;;;800.65;747.05;;;3.30;41.70;;;;;;5055537;28;20177;-72
2022/11/12 01:31:18;;;;;;;632.63;590.88;;;3.30;41.80;;;;;;5054387;28;20216;-72
2022/11/12 01:33:46;;;;;;;315.67;292.52;;;3.30;40.70;;;;;;5054638;28;20269;-72
2022/11/12 01:36:13;;;;;;;809.65;755.13;;;3.20;41.00;;;;;;5058177;28;20659;-72
2022/11/12 01:38:41;;;;;;;736.08;686.28;;;3.10;41.00;;;;;;5056630;28;20271;-72
2022/11/12 01:41:08;;;;;;;672.20;629.33;;;3.10;40.80;;;;;;5054606;28;20199;-72
2022/11/12 01:43:34;;;;;;;635.13;591.50;;;3.10;41.30;;;;;;5053973;28;20201;-72
2022/11/12 01:46:03;;;;;;;753.57;703.97;;;3.00;42.20;;;;;;5054970;28;20255;-72
2022/11/12 01:48:33;;;;;;;738.90;689.95;;;3.00;41.20;;;;;;5054744;28;20195;-72
2022/11/12 01:51:01;;;;;;;676.80;632.70;;;2.90;41.40;;;;;;5054695;28;20265;-72
2022/11/12 01:53:28;;;;;;;793.03;740.95;;;2.90;41.40;;;;;;5053869;28;20181;-72
2022/11/12 01:55:55;;;;;;;690.50;644.47;;;2.90;41.20;;;;;;5055993;28;20195;-72
2022/11/12 01:58:24;;;;;;;528.47;492.80;;;2.90;41.50;;;;;;5056490;28;20269;-73
2022/11/12 02:00:50;;;;;;;617.65;577.85;;;2.90;41.50;;;;;;5054216;28;20249;-72
2022/11/12 02:03:21;;;;;;;728.93;681.53;;;2.90;40.80;;;;;;5054479;28;20199;-72
2022/11/12 02:05:50;;;;;;;651.83;607.35;;;2.80;41.40;;;;;;5054053;28;20852;-72
2022/11/12 02:08:16;;;;;;;752.78;703.05;;;2.80;41.40;;;;;;5054669;28;20190;-72
2022/11/12 02:10:41;;;;;;;632.33;592.55;;;2.80;41.30;;;;;;5053902;28;20260;-72
2022/11/12 02:15:52;;;;;;;701.88;653.78;;;2.80;41.30;;;;;;5056686;28;20228;-72
2022/11/12 02:18:18;;;;;;;647.50;606.53;;;2.80;40.90;;;;;;5053867;28;20207;-72
2022/11/12 02:20:43;;;;;;;753.70;704.10;;;2.70;41.80;;;;;;5053563;28;20426;-72
2022/11/12 02:23:09;;;;;;;745.73;696.57;;;2.60;41.50;;;;;;5053322;28;20418;-72
2022/11/12 02:25:35;;;;;;;773.30;721.77;;;2.60;41.80;;;;;;5053774;28;20253;-72
2022/11/12 02:28:05;;;;;;;480.77;444.55;;;2.60;41.80;;;;;;5054291;28;20184;-72
2022/11/12 02:30:42;;;;;;;789.60;735.78;;;2.60;41.80;;;;;;5053987;28;20224;-72
2022/11/12 02:33:08;;;;;;;557.33;523.63;;;2.50;42.30;;;;;;5053151;28;20233;-72
2022/11/12 02:35:33;;;;;;;695.27;650.00;;;2.50;42.60;;;;;;5053265;28;20278;-72
2022/11/12 02:37:59;;;;;;;580.80;545.00;;;2.50;42.30;;;;;;5053274;28;20204;-71
2022/11/12 02:40:25;;;;;;;674.90;631.37;;;2.50;43.10;;;;;;5053968;28;20183;-72
2022/11/12 02:42:50;;;;;;;784.87;731.90;;;2.60;42.60;;;;;;5053527;28;20176;-72
2022/11/12 02:45:17;;;;;;;579.97;543.93;;;2.60;42.20;;;;;;5053661;28;20524;-72
2022/11/12 02:47:42;;;;;;;502.45;469.88;;;2.60;42.10;;;;;;5053755;28;20182;-72
2022/11/12 02:50:08;;;;;;;637.20;595.73;;;2.50;41.60;;;;;;5054211;28;20813;-72
2022/11/12 02:52:34;;;;;;;187.03;171.87;;;2.60;42.90;;;;;;5052785;28;20175;-72
2022/11/12 02:54:59;;;;;;;505.27;469.70;;;2.60;42.90;;;;;;5052718;28;20218;-72
2022/11/12 02:57:25;;;;;;;452.13;422.07;;;2.60;41.90;;;;;;5052841;28;20547;-72
2022/11/12 02:59:51;;;;;;;91.20;76.77;;;2.60;42.00;;;;;;5052932;28;20256;-72
2022/11/12 03:02:16;;;;;;;247.43;228.10;;;2.70;45.00;;;;;;5053194;28;20518;-72
2022/11/12 03:04:42;;;;;;;573.07;538.60;;;2.80;43.80;;;;;;5053129;28;20686;-72
2022/11/12 03:07:07;;;;;;;538.70;505.40;;;2.80;44.30;;;;;;5054805;28;20183;-72
2022/11/12 03:09:33;;;;;;;683.20;637.53;;;2.70;44.10;;;;;;5053144;28;20181;-72
2022/11/12 03:11:58;;;;;;;698.47;649.93;;;2.70;44.40;;;;;;5053040;28;20249;-72
2022/11/12 03:14:24;;;;;;;614.27;572.23;;;2.70;46.30;;;;;;5052501;28;20202;-72
2022/11/12 03:16:50;;;;;;;600.40;560.33;;;2.80;46.30;;;;;;5052435;28;20212;-72
2022/11/12 03:19:16;;;;;;;469.70;441.37;;;2.80;45.80;;;;;;5056729;28;20420;-72
2022/11/12 03:21:41;;;;;;;311.87;289.10;;;2.80;44.70;;;;;;5053067;28;20173;-72
2022/11/12 03:24:07;;;;;;;629.10;587.03;;;2.70;46.20;;;;;;5053684;28;20662;-72
2022/11/12 03:26:32;;;;;;;473.10;442.17;;;2.80;45.80;;;;;;5055031;28;20249;-72
2022/11/12 03:28:58;;;;;;;672.00;624.47;;;2.70;46.20;;;;;;5053887;28;20184;-71
2022/11/12 03:31:23;;;;;;;543.80;511.67;;;2.70;46.30;;;;;;5060464;28;20216;-72
2022/11/12 03:33:49;;;;;;;525.80;488.77;;;2.70;46.20;;;;;;5053585;28;20243;-72
2022/11/12 03:36:14;;;;;;;396.80;367.57;;;2.70;46.20;;;;;;5051029;28;20237;-72
2022/11/12 03:38:40;;;;;;;516.73;483.87;;;2.70;47.00;;;;;;5052310;28;20541;-72
2022/11/12 03:41:05;;;;;;;732.77;678.27;;;2.80;46.30;;;;;;5052587;28;20590;-72
2022/11/12 03:43:31;;;;;;;486.77;457.57;;;2.80;47.40;;;;;;5052220;28;20230;-71
2022/11/12 03:45:56;;;;;;;409.97;380.97;;;2.90;46.50;;;;;;5052132;28;20292;-72
2022/11/12 03:48:22;;;;;;;618.57;576.90;;;2.90;47.30;;;;;;5052443;28;20181;-72
2022/11/12 03:50:48;;;;;;;582.30;545.63;;;3.00;47.70;;;;;;5055583;28;20191;-72
2022/11/12 03:53:13;;;;;;;303.53;279.90;;;3.00;46.80;;;;;;5055571;28;20268;-72
2022/11/12 03:55:39;;;;;;;652.20;608.30;;;3.10;46.60;;;;;;5052557;28;20238;-73
2022/11/12 03:58:05;;;;;;;625.87;582.60;;;3.10;45.50;;;;;;5052615;28;20696;-71
2022/11/12 04:00:30;;;;;;;269.23;248.40;;;3.20;45.90;;;;;;5059176;28;20213;-72
2022/11/12 04:02:56;;;;;;;656.30;610.33;;;3.20;45.00;;;;;;5052680;28;20529;-72
2022/11/12 04:10:59;;;;;;;509.13;478.90;;;3.20;44.40;;;;;;5052124;28;20577;-71
2022/11/12 04:13:28;;;;;;;433.13;406.10;;;3.10;45.60;;;;;;5051685;28;20171;-72
2022/11/12 04:21:54;;;;;;;628.75;589.53;;;3.20;45.80;;;;;;5055143;28;20199;-72
2022/11/12 04:27:17;;;;;;;524.97;491.50;;;3.20;45.90;;;;;;5052055;28;20273;-72
2022/11/12 04:32:30;;;;;;;648.63;604.35;;;3.20;45.50;;;;;;5051955;28;20199;-71
2022/11/12 04:34:56;;;;;;;687.17;640.58;;;3.20;44.90;;;;;;5053585;28;20691;-72
2022/11/12 04:37:24;;;;;;;466.23;431.48;;;3.20;45.10;;;;;;5053140;28;20234;-71
2022/11/12 04:39:50;;;;;;;460.27;425.02;;;3.30;45.00;;;;;;5051574;28;20650;-72
2022/11/12 04:45:01;;;;;;;113.50;101.25;;;3.30;42.90;;;;;;5052255;28;20215;-72
2022/11/12 04:47:32;;;;;;;205.27;188.18;;;3.30;41.80;;;;;;5051695;28;20518;-72
2022/11/12 04:49:59;;;;;;;483.15;446.85;;;3.30;42.80;;;;;;5052838;28;20182;-72
2022/11/12 04:52:26;;;;;;;161.77;147.15;;;3.30;43.30;;;;;;5051206;28;20172;-72
2022/11/12 04:54:52;;;;;;;262.35;242.55;;;3.30;42.40;;;;;;5051447;28;20582;-72
2022/11/12 04:57:17;;;;;;;372.05;342.63;;;3.20;43.10;;;;;;5052621;28;20257;-72
2022/11/12 04:59:43;;;;;;;581.97;545.17;;;3.30;43.50;;;;;;5051461;28;20195;-72
2022/11/12 05:02:09;;;;;;;540.10;501.83;;;3.30;43.30;;;;;;5052294;28;20252;-72
2022/11/12 05:04:34;;;;;;;618.33;579.37;;;3.20;43.00;;;;;;5051114;28;20251;-72
2022/11/12 05:07:00;;;;;;;311.67;289.23;;;3.30;44.70;;;;;;5052817;28;20230;-72
2022/11/12 05:09:27;;;;;;;445.27;412.70;;;3.30;43.70;;;;;;5051358;28;20184;-72
2022/11/12 05:11:56;;;;;;;607.85;564.30;;;3.40;43.10;;;;;;5052403;28;20419;-72
2022/11/12 05:14:23;;;;;;;667.85;621.88;;;3.30;42.70;;;;;;5051127;28;20432;-72
2022/11/12 05:16:49;;;;;;;767.28;714.08;;;3.30;42.70;;;;;;5053435;28;20205;-72
2022/11/12 05:19:15;;;;;;;257.05;239.25;;;3.30;42.70;;;;;;5056274;28;20184;-72
2022/11/12 05:24:25;;;;;;;697.40;651.47;;;3.30;43.10;;;;;;5057596;28;20491;-71
2022/11/12 05:26:52;;;;;;;659.47;614.80;;;3.30;41.90;;;;;;5058935;28;20177;-71
2022/11/12 05:29:17;;;;;;;754.60;700.85;;;3.20;42.10;;;;;;5055618;28;20687;-72
2022/11/12 05:31:44;;;;;;;646.83;601.17;;;3.20;41.90;;;;;;5054342;28;20186;-72
2022/11/12 05:34:10;;;;;;;457.05;423.33;;;3.10;42.20;;;;;;5054946;28;20856;-72
2022/11/12 05:36:35;;;;;;;689.70;640.50;;;3.00;41.60;;;;;;5054323;28;20199;-71
2022/11/12 05:39:01;;;;;;;674.97;627.97;;;3.00;42.00;;;;;;5054626;28;20909;-72
2022/11/12 05:41:27;;;;;;;821.53;764.97;;;2.90;41.40;;;;;;5054687;28;20840;-72
2022/11/12 05:43:53;;;;;;;705.77;659.57;;;2.80;42.30;;;;;;5054428;28;20227;-72
2022/11/12 05:46:19;;;;;;;769.37;717.30;;;2.80;43.00;;;;;;5054210;28;20180;-72
2022/11/12 05:48:44;;;;;;;649.20;608.40;;;2.80;42.60;;;;;;5054639;28;20229;-72
2022/11/12 05:51:12;;;;;;;767.83;714.47;;;2.70;42.70;;;;;;5055706;28;20501;-72
2022/11/12 05:53:38;;;;;;;553.03;515.67;;;2.70;42.30;;;;;;5054223;28;20237;-72
2022/11/12 05:56:04;;;;;;;618.75;574.75;;;2.70;42.00;;;;;;5054790;28;20675;-72
2022/11/12 05:58:31;;;;;;;492.27;457.83;;;2.60;42.30;;;;;;5055160;28;20692;-71
2022/11/12 06:00:57;;;;;;;506.65;470.52;;;2.60;42.90;;;;;;5054272;28;20169;-72
2022/11/12 06:03:23;;;;;;;281.97;260.47;;;2.60;43.60;;;;;;5053208;28;20175;-74
2022/11/12 06:05:49;;;;;;;666.67;619.13;;;2.70;44.10;;;;;;5055990;28;20450;-72
2022/11/12 06:08:14;;;;;;;604.33;561.60;;;2.60;42.40;;;;;;5054426;28;20650;-72
2022/11/12 06:10:40;;;;;;;656.17;612.87;;;2.50;43.50;;;;;;5054395;28;20418;-72
2022/11/12 06:13:06;;;;;;;732.70;683.47;;;2.50;43.30;;;;;;5053656;28;20180;-72
2022/11/12 06:15:32;;;;;;;415.27;383.40;;;2.60;44.00;;;;;;5053760;28;20196;-71
2022/11/12 06:17:57;;;;;;;653.10;608.70;;;2.60;44.40;;;;;;5055011;28;20564;-72
2022/11/12 06:20:23;;;;;;;215.67;198.90;;;2.60;44.10;;;;;;5053852;28;20191;-72
2022/11/12 06:22:49;;;;;;;599.37;559.70;;;2.60;45.20;;;;;;5053546;28;20205;-72
2022/11/12 06:25:15;;;;;;;610.03;569.38;;;2.70;45.40;;;;;;5057597;28;20451;-72
2022/11/12 06:27:41;;;;;;;777.35;723.90;;;2.70;44.60;;;;;;5053463;28;20214;-72
2022/11/12 06:30:08;;;;;;;718.23;670.17;;;2.80;44.10;;;;;;5058890;28;20185;-72
2022/11/12 06:32:34;;;;;;;614.75;576.55;;;2.80;43.00;;;;;;5053760;28;20410;-72
2022/11/12 06:34:59;;;;;;;312.47;287.67;;;2.80;43.60;;;;;;5053407;28;20196;-72
2022/11/12 06:37:25;;;;;;;618.23;577.13;;;2.90;44.00;;;;;;5056181;28;20207;-72
2022/11/12 06:39:50;;;;;;;497.43;464.87;;;2.90;43.10;;;;;;5053689;28;20242;-72
2022/11/12 06:42:16;;;;;;;679.47;633.93;;;2.90;43.40;;;;;;5053302;28;20183;-72
2022/11/12 06:44:42;;;;;;;373.60;347.40;;;2.90;42.60;;;;;;5055211;28;20689;-72
2022/11/12 06:47:08;;;;;;;466.77;431.93;;;2.90;43.20;;;;;;5054801;28;20455;-72
2022/11/12 06:49:34;;;;;;;399.98;371.90;;;3.00;42.50;;;;;;5057149;28;20658;-72
2022/11/12 06:51:59;;;;;;;577.37;541.27;;;3.10;41.60;;;;;;5056817;28;20202;-72
2022/11/12 06:54:25;;;;;;;309.33;285.03;;;3.00;42.60;;;;;;5055716;28;20539;-72
2022/11/12 06:56:51;;;;;;;562.27;525.10;;;3.10;43.40;;;;;;5052799;28;20585;-72
2022/11/12 06:59:16;;;;;;;700.50;653.40;;;3.20;42.20;;;;;;5052854;28;20241;-71
2022/11/12 07:01:42;;;;;;;471.40;437.77;;;3.10;43.10;;;;;;5052808;28;20185;-72
2022/11/12 07:04:09;;;;;;;762.70;708.17;;;3.20;43.30;;;;;;5052494;28;20252;-72
2022/11/12 07:06:35;;;;;;;681.03;635.20;;;3.20;43.20;;;;;;5052959;28;20179;-72
2022/11/12 07:09:00;;;;;;;585.33;548.73;;;3.20;43.90;;;;;;5053226;28;20172;-72
2022/11/12 07:11:26;;;;;;;579.93;541.03;;;3.10;43.20;;;;;;5052743;28;20180;-72
2022/11/12 07:13:51;;;;;;;585.27;543.93;;;3.20;44.20;;;;;;5052476;28;20197;-72
2022/11/12 07:16:17;;;;;;;608.03;569.47;;;3.20;44.10;;;;;;5054409;28;20671;-72
2022/11/12 07:18:44;;;;;;;586.97;546.87;;;3.30;45.10;;;;;;5054329;28;20655;-72
2022/11/12 07:21:12;;;;;;;448.80;418.50;;;3.40;45.60;;;;;;5055108;28;20830;-71
2022/11/12 07:23:38;;;;;;;553.47;514.80;;;3.40;44.20;;;;;;5053496;28;20177;-71
2022/11/12 07:26:12;;;;;;;354.60;327.83;;;3.40;45.10;;;;;;5050989;28;20587;-72
2022/11/12 07:28:38;;;;;;;484.52;451.02;;;3.40;45.30;;;;;;5053940;28;20579;-72
2022/11/12 07:31:05;;;;;;;659.70;612.13;;;3.50;44.60;;;;;;5052678;28;20207;-72
2022/11/12 07:33:31;;;;;;;692.70;642.75;;;3.50;44.90;;;;;;5052334;28;20168;-72
2022/11/12 07:36:15;;;;;;;500.52;467.17;;;3.50;45.70;;;;;;5053170;28;20199;-72
2022/11/12 07:38:42;;;;;;;509.85;476.00;;;3.60;45.00;;;;;;5051852;28;20211;-72
2022/11/12 07:41:25;;;;;;;362.40;335.40;;;3.60;44.10;;;;;;5053219;28;20636;-72
2022/11/12 07:43:52;;;;;;;538.95;503.67;;;3.60;44.60;;;;;;5052143;28;20180;-71
2022/11/12 07:46:24;;;;;;;592.25;552.17;;;3.70;44.70;;;;;;5052269;28;20203;-72
2022/11/12 07:48:51;;;;;;;369.13;343.42;;;3.70;45.60;;;;;;5053674;28;20173;-71
2022/11/12 07:51:20;;;;;;;448.98;417.85;;;3.80;45.40;;;;;;5053090;28;20176;-70
2022/11/12 07:53:47;;;;;;;485.88;452.73;;;3.80;44.70;;;;;;5051929;28;20536;-72
2022/11/12 07:56:16;;;;;;;402.47;375.17;;;3.80;45.70;;;;;;5052078;28;20180;-72
2022/11/12 07:58:41;;;;;;;195.13;179.88;;;3.90;46.00;;;;;;5052286;28;20423;-72
2022/11/12 08:01:21;;;;;;;662.97;613.80;;;4.10;42.80;;;;;;5055853;28;20579;-72
2022/11/12 08:03:47;;;;;;;298.37;276.70;;;4.20;42.50;;;;;;5054338;28;20350;-73
2022/11/12 08:06:12;;;;;;;376.10;348.17;;;4.20;42.10;;;;;;5052708;28;20412;-72
2022/11/12 08:08:38;;;;;;;700.40;652.53;;;4.30;42.00;;;;;;5052317;28;20226;-72
2022/11/12 08:11:04;;;;;;;291.50;271.20;;;4.30;41.80;;;;;;5052449;28;20519;-72
2022/11/12 08:13:29;;;;;;;693.33;647.47;;;4.20;41.30;;;;;;5054164;28;20170;-73
2022/11/12 08:15:58;;;;;;;282.40;261.30;;;4.30;40.90;;;;;;5052686;28;20204;-72
2022/11/12 08:18:25;;;;;;;478.20;444.27;;;4.40;39.50;;;;;;5052057;28;20205;-72
2022/11/12 08:20:50;;;;;;;680.80;633.60;;;4.40;39.50;;;;;;5052487;28;20419;-72
2022/11/12 08:23:16;;;;;;;646.50;603.80;;;4.50;39.70;;;;;;5052356;28;20925;-73
2022/11/12 08:25:42;;;;;;;483.63;450.80;;;4.60;40.10;;;;;;5055848;28;20758;-73
2022/11/12 08:28:07;;;;;;;696.47;649.83;;;4.60;40.30;;;;;;5052590;28;20685;-73
2022/11/12 08:30:34;;;;;;;475.47;444.27;;;4.70;39.40;;;;;;5051944;28;20256;-73
2022/11/12 08:33:04;;;;;;;507.30;474.15;;;4.70;38.30;;;;;;5056089;28;20240;-73
2022/11/12 08:35:32;;;;;;;242.93;224.98;;;4.70;39.70;;;;;;5052417;28;20205;-73
2022/11/12 08:38:02;;;;;;;325.80;303.73;;;4.70;39.70;;;;;;5051643;28;20236;-73
2022/11/12 08:40:29;;;;;;;503.23;470.00;;;4.80;39.00;;;;;;5051858;28;20657;-72
2022/11/12 08:43:03;;;;;;;345.43;322.17;;;4.90;38.00;;;;;;5051916;28;20423;-72
2022/11/12 08:45:31;;;;;;;389.47;364.37;;;5.00;37.50;;;;;;5056263;28;20455;-72
2022/11/12 08:48:06;;;;;;;361.63;336.43;;;5.10;38.10;;;;;;5052389;28;20424;-73
2022/11/12 08:50:33;;;;;;;267.73;248.13;;;5.20;37.20;;;;;;5051908;28;20514;-72
2022/11/12 08:53:04;;;;;;;516.63;483.77;;;5.20;39.00;;;;;;5060859;28;20959;-72
2022/11/12 08:55:32;;;;;;;268.80;249.83;;;5.30;38.40;;;;;;5060489;28;20927;-72
2022/11/12 08:58:00;;;;;;;492.77;459.20;;;5.30;38.30;;;;;;5058407;28;20543;-72
2022/11/12 09:00:30;;;;;;;363.20;338.10;;;5.60;38.60;;;;;;5055921;28;20495;-72
2022/11/12 09:02:59;;;;;;;433.87;405.27;;;5.70;36.10;;;;;;5054969;28;20788;-72
2022/11/12 09:05:25;;;;;;;463.47;432.23;;;5.90;35.70;;;;;;5059252;28;20429;-72
2022/11/12 09:08:23;;;;;;;408.80;381.73;;;6.00;35.70;;;;;;5056270;28;21018;-73
2022/11/12 09:10:50;;;;;;;583.77;545.27;;;6.00;35.20;;;;;;5021880;28;20598;-72
2022/11/12 09:13:17;;;;;;;348.37;326.03;;;6.00;34.30;;;;;;5056199;28;20424;-71
2022/11/12 09:15:43;;;;;;;318.33;297.07;;;6.10;33.60;;;;;;5056607;28;20500;-72
2022/11/12 09:18:14;;;;;;;644.47;601.57;;;6.20;33.90;;;;;;5055098;28;20839;-72
2022/11/12 09:20:40;;;;;;;623.50;582.17;;;6.40;34.10;;;;;;5054647;28;20409;-72
2022/11/12 09:23:11;;;;;;;220.17;204.03;;;6.50;34.00;;;;;;5059134;28;20912;-72
2022/11/12 09:25:38;;;;;;;353.10;329.07;;;6.50;30.70;;;;;;5055084;28;20441;-72
2022/11/12 09:28:10;;;;;;;459.03;428.97;;;6.70;29.90;;;;;;5054768;28;20439;-72
2022/11/12 09:30:37;;;;;;;492.17;459.13;;;6.90;30.30;;;;;;5058066;28;20440;-72
2022/11/12 09:33:03;;;;;;;390.63;364.13;;;7.00;30.20;;;;;;5054950;28;20424;-72
2022/11/12 09:35:29;;;;;;;304.07;282.43;;;7.10;30.30;;;;;;5054356;28;20425;-72
2022/11/12 09:37:55;;;;;;;307.23;285.97;;;7.30;29.30;;;;;;5056728;28;20541;-72
2022/11/12 09:40:26;;;;;;;236.63;218.10;;;7.40;28.70;;;;;;5057196;28;20184;-72
2022/11/12 09:42:52;;;;;;;301.43;278.97;;;7.60;26.30;;;;;;5054503;28;20440;-72
2022/11/12 09:45:27;;;;;;;398.10;369.77;;;7.70;26.50;;;;;;5054397;28;20473;-72
2022/11/12 09:47:58;;;;;;;316.53;293.07;;;7.90;26.70;;;;;;5058282;28;20409;-72
2022/11/12 09:50:35;;;;;;;145.30;131.43;;;8.10;24.60;;;;;;5054875;28;20509;-72
2022/11/12 09:53:20;;;;;;;591.73;552.83;;;8.10;25.10;;;;;;5054155;28;20414;-72
2022/11/12 09:55:49;;;;;;;427.20;396.23;;;8.30;26.00;;;;;;5058583;28;20428;-72
2022/11/12 09:58:18;;;;;;;207.17;191.00;;;8.60;24.70;;;;;;5054687;28;20994;-72
2022/11/12 10:00:56;;;;;;;472.87;439.23;;;8.70;23.30;;;;;;5054127;28;20423;-72
2022/11/12 10:03:47;;;;;;;252.87;232.30;;;8.90;22.60;;;;;;5058300;28;20408;-72
2022/11/12 10:06:20;;;;;;;268.67;248.30;;;8.80;21.90;;;;;;5054741;28;20416;-72
2022/11/12 10:09:08;;;;;;;266.73;246.63;;;8.80;22.40;;;;;;5053876;28;20495;-72
2022/11/12 10:18:41;;;;;;;92.07;74.93;;;8.80;21.70;;;;;;5054039;28;20501;-72
2022/11/12 10:21:24;;;;;;;290.03;267.53;;;9.00;21.80;;;;;;5042437;28;20759;-72
2022/11/12 10:23:52;;;;;;;277.23;256.97;;;9.10;21.40;;;;;;5053346;28;20927;-71
2022/11/12 10:26:21;;;;;;;301.93;279.17;;;9.20;21.30;;;;;;5054429;28;20481;-72
2022/11/12 10:29:01;;;;;;;562.13;520.37;;;9.20;22.00;;;;;;5054315;28;20453;-73
2022/11/12 10:31:26;;;;;;;404.10;373.77;;;9.20;22.80;;;;;;5055331;28;20868;-72
2022/11/12 10:34:10;;;;;;;235.30;217.23;;;9.20;22.10;;;;;;5053983;28;20454;-72
2022/11/12 10:36:39;;;;;;;317.30;294.80;;;9.30;21.40;;;;;;5056951;28;20700;-72
2022/11/12 10:39:05;;;;;;;202.23;185.37;;;9.40;21.40;;;;;;5053819;28;20421;-72
2022/11/12 10:41:32;;;;;;;266.87;246.27;;;9.60;21.80;;;;;;5055109;28;20500;-72
2022/11/12 10:44:06;;;;;;;208.00;190.83;;;9.60;21.00;;;;;;5054469;28;20193;-73
2022/11/12 10:46:36;;;;;;;237.43;220.10;;;9.40;21.40;;;;;;5055920;28;20437;-72
2022/11/12 10:49:02;;;;;;;220.93;202.77;;;9.50;21.60;;;;;;5055428;28;20999;-73
2022/11/12 10:51:35;;;;;;;222.57;205.13;;;9.40;21.70;;;;;;5054252;28;20447;-73
2022/11/12 10:54:26;;;;;;;203.23;186.43;;;9.50;21.80;;;;;;5055821;28;20175;-75
2022/11/12 10:56:52;;;;;;;647.37;599.13;;;9.50;22.50;;;;;;5055302;28;20496;-74
2022/11/12 10:59:20;;;;;;;310.50;285.53;;;9.60;21.90;;;;;;5054882;28;20412;-72
2022/11/12 11:01:56;;;;;;;273.53;251.40;;;9.60;22.30;;;;;;5054403;28;20431;-72
2022/11/12 11:04:32;;;;;;;205.47;187.23;;;9.70;22.00;;;;;;5056914;28;20440;-72
2022/11/12 11:07:14;;;;;;;330.40;303.63;;;9.90;21.60;;;;;;5054344;28;20804;-73
2022/11/12 11:09:52;;;;;;;200.20;184.07;;;9.90;21.20;;;;;;5055485;28;20417;-73
2022/11/12 11:12:24;;;;;;;241.07;219.67;;;9.90;21.10;;;;;;5057853;28;20432;-72
2022/11/12 11:15:06;;;;;;;610.60;565.40;;;10.10;20.00;;;;;;5053607;28;20444;-72
2022/11/12 11:17:33;;;;;;;123.53;111.13;;;9.90;21.40;;;;;;5054388;28;20461;-72
2022/11/12 11:19:59;;;;;;;303.33;279.57;;;9.90;21.80;;;;;;5054068;28;20771;-72
2022/11/12 11:22:34;;;;;;;618.33;570.10;;;9.90;21.30;;;;;;5054471;28;20415;-71
2022/11/12 11:25:26;;;;;;;552.30;512.43;;;10.10;20.60;;;;;;5078590;22;20891;-69
2022/11/12 11:28:13;;;;;;;385.17;355.53;;;10.20;20.50;;;;;;5054167;28;20409;-69
2022/11/12 11:31:16;;;;;;;278.67;256.47;;;10.30;19.40;;;;;;5052794;28;20946;-69
2022/11/12 11:33:56;;;;;;;358.90;333.40;;;10.40;19.50;;;;;;4980747;28;20974;-69
2022/11/12 11:36:33;;;;;;;313.90;290.47;;;10.40;19.40;;;;;;5052199;28;20409;-69
2022/11/12 11:39:16;;;;;;;393.70;361.93;;;10.30;19.20;;;;;;5052910;28;20919;-69
2022/11/12 11:42:10;;;;;;;515.20;476.57;;;10.40;18.80;;;;;;5054072;28;20409;-69
2022/11/12 11:45:08;;;;;;;275.30;253.67;;;10.40;18.60;;;;;;5052473;28;20558;-70
2022/11/12 11:47:51;;;;;;;362.47;332.77;;;10.40;18.60;;;;;;5045048;28;20421;-70
2022/11/12 11:50:32;;;;;;;187.90;170.57;;;10.50;18.70;;;;;;5054183;28;21012;-70
2022/11/12 11:53:24;;;;;;;416.13;382.80;;;10.60;19.40;;;;;;5051981;28;20393;-69
2022/11/12 11:56:13;;;;;;;539.10;497.40;;;10.80;18.20;;;;;;5053768;28;20421;-70
2022/11/12 11:59:16;;;;;;;489.60;451.73;;;10.60;18.10;;;;;;5052078;28;20487;-70
2022/11/12 12:02:25;;;;;;;433.77;399.80;;;10.60;18.80;;;;;;5001382;28;20506;-70
2022/11/12 12:05:11;;;;;;;506.93;468.37;;;10.60;19.30;;;;;;5052843;28;20421;-70
2022/11/12 12:07:48;;;;;;;498.17;458.80;;;10.60;18.10;;;;;;5052473;28;20587;-70
2022/11/12 12:10:40;;;;;;;468.83;431.10;;;10.50;18.70;;;;;;5052687;28;20483;-70
2022/11/12 12:13:25;;;;;;;726.53;671.53;;;10.70;18.30;;;;;;5052056;28;20773;-70
2022/11/12 12:16:34;;;;;;;697.73;642.30;;;10.80;17.70;;;;;;5053274;28;20468;-71
2022/11/12 12:19:24;;;;;;;825.23;760.53;;;10.90;17.80;;;;;;5053438;28;20418;-70
2022/11/12 12:21:51;;;;;;;415.53;383.23;;;10.80;17.50;;;;;;5051957;28;20398;-70
2022/11/12 12:24:16;;;;;;;414.37;384.13;;;10.80;17.40;;;;;;5053225;28;20798;-70
2022/11/12 12:27:22;;;;;;;260.40;239.67;;;10.80;17.20;;;;;;5055426;28;20504;-70
2022/11/12 12:29:52;;;;;;;353.27;325.93;;;11.00;17.20;;;;;;5055458;28;20187;-69
2022/11/12 12:32:42;;;;;;;581.53;534.67;;;10.90;17.20;;;;;;5056080;28;20412;-71
2022/11/12 12:35:19;;;;;;;191.27;174.30;;;11.00;17.40;;;;;;5059252;28;20425;-69
2022/11/12 12:37:56;;;;;;;519.43;476.43;;;11.20;16.70;;;;;;5055010;28;20468;-70
2022/11/12 12:40:30;;;;;;;455.10;418.57;;;11.30;17.40;;;;;;5056523;28;20416;-69
2022/11/12 12:43:03;;;;;;;776.43;711.77;;;11.50;16.90;;;;;;5058698;28;20900;-69
2022/11/12 12:45:41;;;;;;;470.93;435.13;;;11.60;16.40;;;;;;5055933;28;20456;-70
2022/11/12 12:48:29;;;;;;;452.47;417.90;;;11.60;16.10;;;;;;5055687;28;20414;-70
2022/11/12 12:50:55;;;;;;;602.77;551.77;;;11.60;16.00;;;;;;5048323;28;20506;-70
2022/11/12 12:53:23;;;;;;;643.07;591.30;;;11.60;15.80;;;;;;5057997;28;20444;-70
2022/11/12 12:55:52;;;;;;;684.53;632.77;;;11.80;16.00;;;;;;5058617;28;20609;-72
2022/11/12 12:58:32;;;;;;;709.27;657.83;;;11.80;15.40;;;;;;5061684;28;20933;-70
2022/11/12 13:01:04;;;;;;;887.70;820.30;;;11.80;15.70;;;;;;5061677;28;20413;-71